sensor_id;sensor_type;location;lat;lon;timestamp;temperature;humidity
64499;SHT31;51087;55.718;21.122;2023-08-07T00:01:43;20.85;99.99
64499;SHT31;51087;55.718;21.122;2023-08-07T00:04:08;20.88;99.99
64499;SHT31;51087;55.718;21.122;2023-08-07T00:06:33;20.86;99.99
64499;SHT31;51087;55.718;21.122;2023-08-07T00:08:59;20.85;99.99
64499;SHT31;51087;55.718;21.122;2023-08-07T00:11:24;20.83;99.99
64499;SHT31;51087;55.718;21.122;2023-08-07T00:13:50;20.79;99.99
64499;SHT31;51087;55.718;21.122;2023-08-07T00:16:15;20.78;99.99
64499;SHT31;51087;55.718;21.122;2023-08-07T00:18:41;20.79;99.99
64499;SHT31;51087;55.718;21.122;2023-08-07T00:21:06;20.76;99.99
64499;SHT31;51087;55.718;21.122;2023-08-07T00:23:32;20.78;99.99
64499;SHT31;51087;55.718;21.122;2023-08-07T00:25:57;20.78;99.99
64499;SHT31;51087;55.718;21.122;2023-08-07T00:28:22;20.78;99.99
64499;SHT31;51087;55.718;21.122;2023-08-07T00:30:48;20.76;99.99
64499;SHT31;51087;55.718;21.122;2023-08-07T00:33:13;20.82;99.99
64499;SHT31;51087;55.718;21.122;2023-08-07T00:35:39;20.79;99.99
64499;SHT31;51087;55.718;21.122;2023-08-07T00:38:04;20.81;99.99
64499;SHT31;51087;55.718;21.122;2023-08-07T00:40:36;20.78;99.99
64499;SHT31;51087;55.718;21.122;2023-08-07T00:43:02;20.79;99.99
64499;SHT31;51087;55.718;21.122;2023-08-07T00:45:28;20.78;99.99
64499;SHT31;51087;55.718;21.122;2023-08-07T00:47:53;20.72;99.99
64499;SHT31;51087;55.718;21.122;2023-08-07T00:50:19;20.74;99.99
64499;SHT31;51087;55.718;21.122;2023-08-07T00:52:44;20.72;99.99
64499;SHT31;51087;55.718;21.122;2023-08-07T00:55:10;20.71;99.99
64499;SHT31;51087;55.718;21.122;2023-08-07T00:57:36;20.69;99.99
64499;SHT31;51087;55.718;21.122;2023-08-07T01:00:02;20.65;99.99
64499;SHT31;51087;55.718;21.122;2023-08-07T01:02:28;20.59;99.99
64499;SHT31;51087;55.718;21.122;2023-08-07T01:04:53;20.59;99.99
64499;SHT31;51087;55.718;21.122;2023-08-07T01:07:19;20.59;99.99
64499;SHT31;51087;55.718;21.122;2023-08-07T01:09:44;20.57;99.99
64499;SHT31;51087;55.718;21.122;2023-08-07T01:12:22;20.57;99.99
64499;SHT31;51087;55.718;21.122;2023-08-07T01:17:58;20.59;99.99
64499;SHT31;51087;55.718;21.122;2023-08-07T01:20:24;20.64;99.99
64499;SHT31;51087;55.718;21.122;2023-08-07T01:22:50;20.58;99.99
64499;SHT31;51087;55.718;21.122;2023-08-07T01:25:15;20.65;99.99
64499;SHT31;51087;55.718;21.122;2023-08-07T01:27:53;20.64;99.99
64499;SHT31;51087;55.718;21.122;2023-08-07T01:30:36;20.68;99.99
64499;SHT31;51087;55.718;21.122;2023-08-07T01:35:58;20.61;99.99
64499;SHT31;51087;55.718;21.122;2023-08-07T01:38:26;20.57;99.99
64499;SHT31;51087;55.718;21.122;2023-08-07T01:40:52;20.57;99.99
64499;SHT31;51087;55.718;21.122;2023-08-07T01:43:18;20.54;99.99
64499;SHT31;51087;55.718;21.122;2023-08-07T01:45:44;20.48;99.99
64499;SHT31;51087;55.718;21.122;2023-08-07T01:48:10;20.48;99.99
64499;SHT31;51087;55.718;21.122;2023-08-07T01:50:38;20.54;99.99
64499;SHT31;51087;55.718;21.122;2023-08-07T01:53:03;20.51;99.99
64499;SHT31;51087;55.718;21.122;2023-08-07T01:55:29;20.51;99.99
64499;SHT31;51087;55.718;21.122;2023-08-07T01:57:54;20.52;99.99
64499;SHT31;51087;55.718;21.122;2023-08-07T02:00:20;20.49;99.99
64499;SHT31;51087;55.718;21.122;2023-08-07T02:02:46;20.51;99.99
64499;SHT31;51087;55.718;21.122;2023-08-07T02:05:12;20.49;99.99
64499;SHT31;51087;55.718;21.122;2023-08-07T02:07:38;20.52;99.99
64499;SHT31;51087;55.718;21.122;2023-08-07T02:10:04;20.52;99.99
64499;SHT31;51087;55.718;21.122;2023-08-07T02:12:29;20.54;99.99
64499;SHT31;51087;55.718;21.122;2023-08-07T02:14:58;20.55;99.99
64499;SHT31;51087;55.718;21.122;2023-08-07T02:17:24;20.61;99.99
64499;SHT31;51087;55.718;21.122;2023-08-07T02:19:50;20.64;99.99
64499;SHT31;51087;55.718;21.122;2023-08-07T02:22:15;20.65;99.99
64499;SHT31;51087;55.718;21.122;2023-08-07T02:24:41;20.68;99.99
64499;SHT31;51087;55.718;21.122;2023-08-07T02:27:06;20.68;99.99
64499;SHT31;51087;55.718;21.122;2023-08-07T02:29:31;20.68;99.99
64499;SHT31;51087;55.718;21.122;2023-08-07T02:32:00;20.69;99.99
64499;SHT31;51087;55.718;21.122;2023-08-07T02:34:25;20.68;99.99
64499;SHT31;51087;55.718;21.122;2023-08-07T02:36:50;20.65;99.99
64499;SHT31;51087;55.718;21.122;2023-08-07T02:39:16;20.65;99.99
64499;SHT31;51087;55.718;21.122;2023-08-07T02:41:42;20.67;99.99
64499;SHT31;51087;55.718;21.122;2023-08-07T02:44:07;20.64;99.99
64499;SHT31;51087;55.718;21.122;2023-08-07T02:46:32;20.59;99.99
64499;SHT31;51087;55.718;21.122;2023-08-07T02:49:01;20.58;99.99
64499;SHT31;51087;55.718;21.122;2023-08-07T02:51:26;20.55;99.99
64499;SHT31;51087;55.718;21.122;2023-08-07T02:53:52;20.54;99.99
64499;SHT31;51087;55.718;21.122;2023-08-07T02:56:17;20.51;99.99
64499;SHT31;51087;55.718;21.122;2023-08-07T02:58:43;20.47;99.99
64499;SHT31;51087;55.718;21.122;2023-08-07T03:01:08;20.44;99.99
64499;SHT31;51087;55.718;21.122;2023-08-07T03:03:34;20.41;99.99
64499;SHT31;51087;55.718;21.122;2023-08-07T03:06:00;20.40;99.99
64499;SHT31;51087;55.718;21.122;2023-08-07T03:08:25;20.37;99.99
64499;SHT31;51087;55.718;21.122;2023-08-07T03:10:55;20.34;99.99
64499;SHT31;51087;55.718;21.122;2023-08-07T03:13:24;20.34;99.99
64499;SHT31;51087;55.718;21.122;2023-08-07T03:15:50;20.28;99.99
64499;SHT31;51087;55.718;21.122;2023-08-07T03:18:16;20.27;99.99
64499;SHT31;51087;55.718;21.122;2023-08-07T03:20:42;20.21;99.99
64499;SHT31;51087;55.718;21.122;2023-08-07T03:23:09;20.20;99.99
64499;SHT31;51087;55.718;21.122;2023-08-07T03:25:34;20.16;99.99
64499;SHT31;51087;55.718;21.122;2023-08-07T03:28:00;20.16;99.99
64499;SHT31;51087;55.718;21.122;2023-08-07T03:30:25;20.20;99.99
64499;SHT31;51087;55.718;21.122;2023-08-07T03:32:50;20.21;99.99
64499;SHT31;51087;55.718;21.122;2023-08-07T03:35:16;20.23;99.99
64499;SHT31;51087;55.718;21.122;2023-08-07T03:37:41;20.23;99.99
64499;SHT31;51087;55.718;21.122;2023-08-07T03:40:07;20.24;99.99
64499;SHT31;51087;55.718;21.122;2023-08-07T03:42:32;20.28;99.99
64499;SHT31;51087;55.718;21.122;2023-08-07T03:44:58;20.36;99.99
64499;SHT31;51087;55.718;21.122;2023-08-07T03:47:23;20.41;99.99
64499;SHT31;51087;55.718;21.122;2023-08-07T03:49:49;20.48;99.99
64499;SHT31;51087;55.718;21.122;2023-08-07T03:52:14;20.54;99.99
64499;SHT31;51087;55.718;21.122;2023-08-07T03:54:40;20.59;99.99
64499;SHT31;51087;55.718;21.122;2023-08-07T03:57:05;20.58;99.99
64499;SHT31;51087;55.718;21.122;2023-08-07T03:59:31;20.61;99.99
64499;SHT31;51087;55.718;21.122;2023-08-07T04:01:56;20.59;99.99
64499;SHT31;51087;55.718;21.122;2023-08-07T04:04:22;20.67;99.99
64499;SHT31;51087;55.718;21.122;2023-08-07T04:06:47;20.64;99.99
64499;SHT31;51087;55.718;21.122;2023-08-07T04:09:12;20.59;99.99
64499;SHT31;51087;55.718;21.122;2023-08-07T04:11:38;20.67;99.99
64499;SHT31;51087;55.718;21.122;2023-08-07T04:14:05;20.59;99.99
64499;SHT31;51087;55.718;21.122;2023-08-07T04:16:30;20.59;99.99
64499;SHT31;51087;55.718;21.122;2023-08-07T04:18:56;20.65;99.99
64499;SHT31;51087;55.718;21.122;2023-08-07T04:21:22;20.69;99.99
64499;SHT31;51087;55.718;21.122;2023-08-07T04:23:47;20.85;99.99
64499;SHT31;51087;55.718;21.122;2023-08-07T04:26:13;20.88;99.99
64499;SHT31;51087;55.718;21.122;2023-08-07T04:28:39;20.93;99.99
64499;SHT31;51087;55.718;21.122;2023-08-07T04:31:05;20.93;99.99
64499;SHT31;51087;55.718;21.122;2023-08-07T04:33:30;21.03;99.99
64499;SHT31;51087;55.718;21.122;2023-08-07T04:35:55;21.10;99.99
64499;SHT31;51087;55.718;21.122;2023-08-07T04:38:22;21.12;99.99
64499;SHT31;51087;55.718;21.122;2023-08-07T04:40:51;21.27;99.99
64499;SHT31;51087;55.718;21.122;2023-08-07T04:43:17;21.26;99.99
64499;SHT31;51087;55.718;21.122;2023-08-07T04:45:43;21.22;99.99
64499;SHT31;51087;55.718;21.122;2023-08-07T04:48:10;21.19;99.99
64499;SHT31;51087;55.718;21.122;2023-08-07T04:50:37;21.19;99.99
64499;SHT31;51087;55.718;21.122;2023-08-07T04:53:02;21.22;99.99
64499;SHT31;51087;55.718;21.122;2023-08-07T04:55:28;21.04;99.99
64499;SHT31;51087;55.718;21.122;2023-08-07T04:57:53;20.89;99.99
64499;SHT31;51087;55.718;21.122;2023-08-07T05:00:22;20.75;99.99
64499;SHT31;51087;55.718;21.122;2023-08-07T05:02:47;20.54;99.99
64499;SHT31;51087;55.718;21.122;2023-08-07T05:05:13;20.40;99.99
64499;SHT31;51087;55.718;21.122;2023-08-07T05:07:40;20.41;99.99
64499;SHT31;51087;55.718;21.122;2023-08-07T05:10:06;20.49;99.99
64499;SHT31;51087;55.718;21.122;2023-08-07T05:12:31;20.59;99.99
64499;SHT31;51087;55.718;21.122;2023-08-07T05:14:56;20.57;99.99
64499;SHT31;51087;55.718;21.122;2023-08-07T05:17:22;20.58;99.99
64499;SHT31;51087;55.718;21.122;2023-08-07T05:19:47;20.61;99.84
64499;SHT31;51087;55.718;21.122;2023-08-07T05:22:13;20.54;99.92
64499;SHT31;51087;55.718;21.122;2023-08-07T05:24:39;20.36;99.22
64499;SHT31;51087;55.718;21.122;2023-08-07T05:27:08;20.23;98.22
64499;SHT31;51087;55.718;21.122;2023-08-07T05:29:34;20.17;97.61
64499;SHT31;51087;55.718;21.122;2023-08-07T05:32:00;20.13;97.25
64499;SHT31;51087;55.718;21.122;2023-08-07T05:34:25;20.03;97.63
64499;SHT31;51087;55.718;21.122;2023-08-07T05:36:51;20.06;97.64
64499;SHT31;51087;55.718;21.122;2023-08-07T05:39:16;20.17;97.76
64499;SHT31;51087;55.718;21.122;2023-08-07T05:41:42;20.24;97.36
64499;SHT31;51087;55.718;21.122;2023-08-07T05:44:07;20.20;97.52
64499;SHT31;51087;55.718;21.122;2023-08-07T05:46:33;20.18;97.56
64499;SHT31;51087;55.718;21.122;2023-08-07T05:48:58;20.17;97.92
64499;SHT31;51087;55.718;21.122;2023-08-07T05:51:23;20.13;98.16
64499;SHT31;51087;55.718;21.122;2023-08-07T05:53:49;20.01;98.18
64499;SHT31;51087;55.718;21.122;2023-08-07T05:56:14;20.06;98.58
64499;SHT31;51087;55.718;21.122;2023-08-07T05:58:40;19.96;98.39
64499;SHT31;51087;55.718;21.122;2023-08-07T06:01:05;19.71;98.72
64499;SHT31;51087;55.718;21.122;2023-08-07T06:03:31;19.57;99.40
64499;SHT31;51087;55.718;21.122;2023-08-07T06:05:57;19.21;99.95
64499;SHT31;51087;55.718;21.122;2023-08-07T06:08:22;19.06;99.99
64499;SHT31;51087;55.718;21.122;2023-08-07T06:10:48;18.96;99.99
64499;SHT31;51087;55.718;21.122;2023-08-07T06:13:13;18.97;99.99
64499;SHT31;51087;55.718;21.122;2023-08-07T06:15:39;18.76;99.96
64499;SHT31;51087;55.718;21.122;2023-08-07T06:18:04;18.75;99.99
64499;SHT31;51087;55.718;21.122;2023-08-07T06:20:30;18.69;99.99
64499;SHT31;51087;55.718;21.122;2023-08-07T06:22:55;18.51;99.99
64499;SHT31;51087;55.718;21.122;2023-08-07T06:25:21;18.44;99.99
64499;SHT31;51087;55.718;21.122;2023-08-07T06:27:46;18.35;99.99
64499;SHT31;51087;55.718;21.122;2023-08-07T06:30:12;18.24;99.99
64499;SHT31;51087;55.718;21.122;2023-08-07T06:32:39;18.17;99.99
64499;SHT31;51087;55.718;21.122;2023-08-07T06:35:05;18.14;99.99
64499;SHT31;51087;55.718;21.122;2023-08-07T06:37:31;18.14;99.99
64499;SHT31;51087;55.718;21.122;2023-08-07T06:39:56;18.11;99.99
64499;SHT31;51087;55.718;21.122;2023-08-07T06:42:22;17.89;99.99
64499;SHT31;51087;55.718;21.122;2023-08-07T06:44:47;17.91;99.93
64499;SHT31;51087;55.718;21.122;2023-08-07T06:47:13;17.96;99.99
64499;SHT31;51087;55.718;21.122;2023-08-07T06:49:38;17.86;99.99
64499;SHT31;51087;55.718;21.122;2023-08-07T06:52:04;17.77;99.99
64499;SHT31;51087;55.718;21.122;2023-08-07T06:54:30;17.79;99.99
64499;SHT31;51087;55.718;21.122;2023-08-07T06:56:55;17.61;99.99
64499;SHT31;51087;55.718;21.122;2023-08-07T06:59:21;17.58;99.99
64499;SHT31;51087;55.718;21.122;2023-08-07T07:01:46;17.56;99.99
64499;SHT31;51087;55.718;21.122;2023-08-07T07:04:12;17.55;99.99
64499;SHT31;51087;55.718;21.122;2023-08-07T07:06:38;17.56;99.99
64499;SHT31;51087;55.718;21.122;2023-08-07T07:09:03;17.59;99.99
64499;SHT31;51087;55.718;21.122;2023-08-07T07:11:29;17.55;99.99
64499;SHT31;51087;55.718;21.122;2023-08-07T07:13:54;17.43;99.99
64499;SHT31;51087;55.718;21.122;2023-08-07T07:16:21;17.32;99.99
64499;SHT31;51087;55.718;21.122;2023-08-07T07:18:49;17.35;99.99
64499;SHT31;51087;55.718;21.122;2023-08-07T07:21:14;17.25;99.99
64499;SHT31;51087;55.718;21.122;2023-08-07T07:23:40;17.29;99.99
64499;SHT31;51087;55.718;21.122;2023-08-07T07:26:05;17.10;99.99
64499;SHT31;51087;55.718;21.122;2023-08-07T07:28:31;17.08;99.99
64499;SHT31;51087;55.718;21.122;2023-08-07T07:30:57;17.14;99.99
64499;SHT31;51087;55.718;21.122;2023-08-07T07:33:22;17.12;99.99
64499;SHT31;51087;55.718;21.122;2023-08-07T07:35:48;17.14;99.99
64499;SHT31;51087;55.718;21.122;2023-08-07T07:38:14;17.11;99.99
64499;SHT31;51087;55.718;21.122;2023-08-07T07:40:40;17.17;99.99
64499;SHT31;51087;55.718;21.122;2023-08-07T07:43:06;16.94;99.99
64499;SHT31;51087;55.718;21.122;2023-08-07T07:45:31;16.90;99.99
64499;SHT31;51087;55.718;21.122;2023-08-07T07:47:59;16.77;99.99
64499;SHT31;51087;55.718;21.122;2023-08-07T07:50:24;16.83;99.99
64499;SHT31;51087;55.718;21.122;2023-08-07T07:52:50;16.85;99.99
64499;SHT31;51087;55.718;21.122;2023-08-07T07:55:16;16.91;99.99
64499;SHT31;51087;55.718;21.122;2023-08-07T07:57:41;17.00;99.99
64499;SHT31;51087;55.718;21.122;2023-08-07T08:00:07;17.08;99.99
64499;SHT31;51087;55.718;21.122;2023-08-07T08:02:36;17.18;99.99
64499;SHT31;51087;55.718;21.122;2023-08-07T08:05:02;17.12;99.99
64499;SHT31;51087;55.718;21.122;2023-08-07T08:07:27;16.99;99.99
64499;SHT31;51087;55.718;21.122;2023-08-07T08:09:53;16.87;99.99
64499;SHT31;51087;55.718;21.122;2023-08-07T08:12:18;16.77;99.99
64499;SHT31;51087;55.718;21.122;2023-08-07T08:14:43;16.90;99.99
64499;SHT31;51087;55.718;21.122;2023-08-07T08:17:09;16.99;99.99
64499;SHT31;51087;55.718;21.122;2023-08-07T08:19:34;16.99;99.99
64499;SHT31;51087;55.718;21.122;2023-08-07T08:22:00;17.03;99.99
64499;SHT31;51087;55.718;21.122;2023-08-07T08:24:26;17.08;99.99
64499;SHT31;51087;55.718;21.122;2023-08-07T08:26:51;17.14;99.99
64499;SHT31;51087;55.718;21.122;2023-08-07T08:29:17;17.18;99.99
64499;SHT31;51087;55.718;21.122;2023-08-07T08:31:42;17.31;99.99
64499;SHT31;51087;55.718;21.122;2023-08-07T08:34:07;17.20;99.99
64499;SHT31;51087;55.718;21.122;2023-08-07T08:36:33;17.15;99.99
64499;SHT31;51087;55.718;21.122;2023-08-07T08:38:58;17.22;99.99
64499;SHT31;51087;55.718;21.122;2023-08-07T08:41:24;17.24;99.99
64499;SHT31;51087;55.718;21.122;2023-08-07T08:43:52;17.21;99.99
64499;SHT31;51087;55.718;21.122;2023-08-07T08:46:20;17.20;99.99
64499;SHT31;51087;55.718;21.122;2023-08-07T08:48:50;17.36;99.99
64499;SHT31;51087;55.718;21.122;2023-08-07T08:51:16;17.36;99.99
64499;SHT31;51087;55.718;21.122;2023-08-07T08:53:45;17.36;99.99
64499;SHT31;51087;55.718;21.122;2023-08-07T08:56:11;17.38;99.47
64499;SHT31;51087;55.718;21.122;2023-08-07T08:58:37;17.38;98.95
64499;SHT31;51087;55.718;21.122;2023-08-07T09:01:04;17.45;98.79
64499;SHT31;51087;55.718;21.122;2023-08-07T09:03:31;17.48;99.07
64499;SHT31;51087;55.718;21.122;2023-08-07T09:05:58;17.52;99.22
64499;SHT31;51087;55.718;21.122;2023-08-07T09:08:26;17.46;98.94
64499;SHT31;51087;55.718;21.122;2023-08-07T09:10:54;17.34;98.47
64499;SHT31;51087;55.718;21.122;2023-08-07T09:13:23;17.35;98.47
64499;SHT31;51087;55.718;21.122;2023-08-07T09:15:50;17.22;98.92
64499;SHT31;51087;55.718;21.122;2023-08-07T09:18:17;17.25;98.63
64499;SHT31;51087;55.718;21.122;2023-08-07T09:20:42;17.27;98.27
64499;SHT31;51087;55.718;21.122;2023-08-07T09:23:08;17.29;98.93
64499;SHT31;51087;55.718;21.122;2023-08-07T09:25:34;17.28;98.50
64499;SHT31;51087;55.718;21.122;2023-08-07T09:28:06;17.28;98.33
64499;SHT31;51087;55.718;21.122;2023-08-07T09:30:34;17.20;97.93
64499;SHT31;51087;55.718;21.122;2023-08-07T09:33:01;17.25;97.58
64499;SHT31;51087;55.718;21.122;2023-08-07T09:35:29;17.29;97.27
64499;SHT31;51087;55.718;21.122;2023-08-07T09:37:56;17.25;97.22
64499;SHT31;51087;55.718;21.122;2023-08-07T09:40:22;17.12;98.03
64499;SHT31;51087;55.718;21.122;2023-08-07T09:42:54;17.18;98.27
64499;SHT31;51087;55.718;21.122;2023-08-07T09:45:26;17.18;99.33
64499;SHT31;51087;55.718;21.122;2023-08-07T09:48:01;17.06;99.71
64499;SHT31;51087;55.718;21.122;2023-08-07T09:50:27;17.07;99.99
64499;SHT31;51087;55.718;21.122;2023-08-07T09:52:54;17.08;99.99
64499;SHT31;51087;55.718;21.122;2023-08-07T09:55:21;17.21;99.72
64499;SHT31;51087;55.718;21.122;2023-08-07T09:57:47;17.28;99.25
64499;SHT31;51087;55.718;21.122;2023-08-07T10:00:13;17.28;99.03
64499;SHT31;51087;55.718;21.122;2023-08-07T10:02:46;17.35;99.21
64499;SHT31;51087;55.718;21.122;2023-08-07T10:05:11;17.50;99.29
64499;SHT31;51087;55.718;21.122;2023-08-07T10:07:38;17.58;99.05
64499;SHT31;51087;55.718;21.122;2023-08-07T10:10:05;17.59;98.38
64499;SHT31;51087;55.718;21.122;2023-08-07T10:12:32;17.61;98.15
64499;SHT31;51087;55.718;21.122;2023-08-07T10:14:59;17.67;97.82
64499;SHT31;51087;55.718;21.122;2023-08-07T10:17:24;17.79;97.25
64499;SHT31;51087;55.718;21.122;2023-08-07T10:19:51;17.91;96.81
64499;SHT31;51087;55.718;21.122;2023-08-07T10:22:19;17.94;96.34
64499;SHT31;51087;55.718;21.122;2023-08-07T10:24:47;17.98;96.35
64499;SHT31;51087;55.718;21.122;2023-08-07T10:27:15;18.05;95.07
64499;SHT31;51087;55.718;21.122;2023-08-07T10:29:43;18.08;95.07
64499;SHT31;51087;55.718;21.122;2023-08-07T10:32:10;17.94;93.78
64499;SHT31;51087;55.718;21.122;2023-08-07T10:34:37;17.93;94.25
64499;SHT31;51087;55.718;21.122;2023-08-07T10:37:06;18.13;92.83
64499;SHT31;51087;55.718;21.122;2023-08-07T10:39:31;18.13;92.66
64499;SHT31;51087;55.718;21.122;2023-08-07T10:41:57;18.08;92.44
64499;SHT31;51087;55.718;21.122;2023-08-07T10:44:24;18.18;91.91
64499;SHT31;51087;55.718;21.122;2023-08-07T10:46:55;18.21;91.85
64499;SHT31;51087;55.718;21.122;2023-08-07T10:49:36;18.13;91.74
64499;SHT31;51087;55.718;21.122;2023-08-07T10:52:11;18.10;91.03
64499;SHT31;51087;55.718;21.122;2023-08-07T10:54:38;18.07;90.76
64499;SHT31;51087;55.718;21.122;2023-08-07T10:57:10;17.94;89.73
64499;SHT31;51087;55.718;21.122;2023-08-07T10:59:37;17.97;90.23
64499;SHT31;51087;55.718;21.122;2023-08-07T11:02:07;18.01;89.36
64499;SHT31;51087;55.718;21.122;2023-08-07T11:04:34;18.13;89.73
64499;SHT31;51087;55.718;21.122;2023-08-07T11:07:02;18.24;89.68
64499;SHT31;51087;55.718;21.122;2023-08-07T11:09:27;18.20;88.78
64499;SHT31;51087;55.718;21.122;2023-08-07T11:11:53;18.17;88.93
64499;SHT31;51087;55.718;21.122;2023-08-07T11:14:19;18.20;89.20
64499;SHT31;51087;55.718;21.122;2023-08-07T11:16:46;18.22;89.49
64499;SHT31;51087;55.718;21.122;2023-08-07T11:19:17;18.21;89.34
64499;SHT31;51087;55.718;21.122;2023-08-07T11:21:42;18.21;89.50
64499;SHT31;51087;55.718;21.122;2023-08-07T11:24:12;18.27;89.74
64499;SHT31;51087;55.718;21.122;2023-08-07T11:26:37;18.38;89.04
64499;SHT31;51087;55.718;21.122;2023-08-07T11:29:03;18.28;89.83
64499;SHT31;51087;55.718;21.122;2023-08-07T11:31:28;18.22;90.18
64499;SHT31;51087;55.718;21.122;2023-08-07T11:33:57;17.94;90.22
64499;SHT31;51087;55.718;21.122;2023-08-07T11:36:24;17.91;91.09
64499;SHT31;51087;55.718;21.122;2023-08-07T11:38:50;17.94;90.87
64499;SHT31;51087;55.718;21.122;2023-08-07T11:41:16;18.30;90.08
64499;SHT31;51087;55.718;21.122;2023-08-07T11:43:42;18.15;89.65
64499;SHT31;51087;55.718;21.122;2023-08-07T11:46:10;18.17;90.27
64499;SHT31;51087;55.718;21.122;2023-08-07T11:48:37;18.17;90.74
64499;SHT31;51087;55.718;21.122;2023-08-07T11:51:04;18.25;90.42
64499;SHT31;51087;55.718;21.122;2023-08-07T11:53:34;18.13;91.23
64499;SHT31;51087;55.718;21.122;2023-08-07T11:56:03;17.93;89.99
64499;SHT31;51087;55.718;21.122;2023-08-07T11:58:38;17.96;90.23
64499;SHT31;51087;55.718;21.122;2023-08-07T12:01:10;17.91;90.51
64499;SHT31;51087;55.718;21.122;2023-08-07T12:03:37;17.94;90.36
64499;SHT31;51087;55.718;21.122;2023-08-07T12:06:07;17.96;90.14
64499;SHT31;51087;55.718;21.122;2023-08-07T12:11:09;18.21;89.13
64499;SHT31;51087;55.718;21.122;2023-08-07T12:13:41;18.34;88.90
64499;SHT31;51087;55.718;21.122;2023-08-07T12:16:06;18.37;88.17
64499;SHT31;51087;55.718;21.122;2023-08-07T12:18:32;18.58;87.54
64499;SHT31;51087;55.718;21.122;2023-08-07T12:21:00;18.99;86.89
64499;SHT31;51087;55.718;21.122;2023-08-07T12:23:26;19.36;85.22
64499;SHT31;51087;55.718;21.122;2023-08-07T12:25:52;19.78;83.61
64499;SHT31;51087;55.718;21.122;2023-08-07T12:28:18;19.48;84.67
64499;SHT31;51087;55.718;21.122;2023-08-07T12:30:47;19.54;85.16
64499;SHT31;51087;55.718;21.122;2023-08-07T12:33:14;19.17;85.86
64499;SHT31;51087;55.718;21.122;2023-08-07T12:35:40;19.23;86.18
64499;SHT31;51087;55.718;21.122;2023-08-07T12:38:07;19.16;86.11
64499;SHT31;51087;55.718;21.122;2023-08-07T12:40:33;19.04;85.49
64499;SHT31;51087;55.718;21.122;2023-08-07T12:43:01;19.10;85.17
64499;SHT31;51087;55.718;21.122;2023-08-07T12:45:27;19.25;85.31
64499;SHT31;51087;55.718;21.122;2023-08-07T12:47:52;19.17;85.79
64499;SHT31;51087;55.718;21.122;2023-08-07T12:50:17;19.03;85.81
64499;SHT31;51087;55.718;21.122;2023-08-07T12:52:43;19.06;85.66
64499;SHT31;51087;55.718;21.122;2023-08-07T12:55:08;18.87;86.15
64499;SHT31;51087;55.718;21.122;2023-08-07T12:57:34;18.87;86.44
64499;SHT31;51087;55.718;21.122;2023-08-07T13:00:00;18.70;86.48
64499;SHT31;51087;55.718;21.122;2023-08-07T13:02:25;18.51;86.83
64499;SHT31;51087;55.718;21.122;2023-08-07T13:04:51;18.38;86.98
64499;SHT31;51087;55.718;21.122;2023-08-07T13:07:20;18.38;87.06
64499;SHT31;51087;55.718;21.122;2023-08-07T13:09:45;18.35;87.01
64499;SHT31;51087;55.718;21.122;2023-08-07T13:12:11;18.38;86.31
64499;SHT31;51087;55.718;21.122;2023-08-07T13:14:36;18.51;86.72
64499;SHT31;51087;55.718;21.122;2023-08-07T13:17:02;18.48;87.33
64499;SHT31;51087;55.718;21.122;2023-08-07T13:19:27;18.52;86.68
64499;SHT31;51087;55.718;21.122;2023-08-07T13:21:53;18.62;86.54
64499;SHT31;51087;55.718;21.122;2023-08-07T13:24:18;18.75;86.33
64499;SHT31;51087;55.718;21.122;2023-08-07T13:26:43;18.75;84.00
64499;SHT31;51087;55.718;21.122;2023-08-07T13:29:12;18.77;83.98
64499;SHT31;51087;55.718;21.122;2023-08-07T13:31:37;18.72;84.63
64499;SHT31;51087;55.718;21.122;2023-08-07T13:34:03;18.96;84.26
64499;SHT31;51087;55.718;21.122;2023-08-07T13:36:34;18.87;84.18
64499;SHT31;51087;55.718;21.122;2023-08-07T13:38:59;19.03;83.76
64499;SHT31;51087;55.718;21.122;2023-08-07T13:41:26;19.45;83.56
64499;SHT31;51087;55.718;21.122;2023-08-07T13:43:51;19.59;83.39
64499;SHT31;51087;55.718;21.122;2023-08-07T13:46:17;19.35;83.65
64499;SHT31;51087;55.718;21.122;2023-08-07T13:48:44;19.28;83.80
64499;SHT31;51087;55.718;21.122;2023-08-07T13:51:10;19.25;84.42
64499;SHT31;51087;55.718;21.122;2023-08-07T13:53:35;19.20;84.61
64499;SHT31;51087;55.718;21.122;2023-08-07T13:56:01;19.25;83.24
64499;SHT31;51087;55.718;21.122;2023-08-07T13:58:26;19.50;82.84
64499;SHT31;51087;55.718;21.122;2023-08-07T14:00:52;19.72;82.36
64499;SHT31;51087;55.718;21.122;2023-08-07T14:03:18;20.23;81.21
64499;SHT31;51087;55.718;21.122;2023-08-07T14:05:43;20.17;80.52
64499;SHT31;51087;55.718;21.122;2023-08-07T14:08:09;19.97;81.61
64499;SHT31;51087;55.718;21.122;2023-08-07T14:10:36;19.65;82.15
64499;SHT31;51087;55.718;21.122;2023-08-07T14:13:03;19.38;82.82
64499;SHT31;51087;55.718;21.122;2023-08-07T14:15:28;19.28;82.79
64499;SHT31;51087;55.718;21.122;2023-08-07T14:17:54;19.30;82.43
64499;SHT31;51087;55.718;21.122;2023-08-07T14:20:21;19.18;82.10
64499;SHT31;51087;55.718;21.122;2023-08-07T14:22:47;18.87;82.90
64499;SHT31;51087;55.718;21.122;2023-08-07T14:25:12;18.82;84.11
64499;SHT31;51087;55.718;21.122;2023-08-07T14:27:38;18.77;83.34
64499;SHT31;51087;55.718;21.122;2023-08-07T14:30:04;19.04;83.38
64499;SHT31;51087;55.718;21.122;2023-08-07T14:32:29;18.90;83.02
64499;SHT31;51087;55.718;21.122;2023-08-07T14:34:55;18.92;83.23
64499;SHT31;51087;55.718;21.122;2023-08-07T14:37:20;18.85;82.57
64499;SHT31;51087;55.718;21.122;2023-08-07T14:39:46;19.02;82.91
64499;SHT31;51087;55.718;21.122;2023-08-07T14:42:11;19.06;82.46
64499;SHT31;51087;55.718;21.122;2023-08-07T14:44:36;19.24;82.86
64499;SHT31;51087;55.718;21.122;2023-08-07T14:47:02;19.50;82.48
64499;SHT31;51087;55.718;21.122;2023-08-07T14:49:27;19.50;82.63
64499;SHT31;51087;55.718;21.122;2023-08-07T14:51:53;19.52;81.68
64499;SHT31;51087;55.718;21.122;2023-08-07T14:54:19;19.07;82.24
64499;SHT31;51087;55.718;21.122;2023-08-07T14:56:45;19.02;82.10
64499;SHT31;51087;55.718;21.122;2023-08-07T14:59:10;19.08;81.43
64499;SHT31;51087;55.718;21.122;2023-08-07T15:01:36;19.31;80.80
64499;SHT31;51087;55.718;21.122;2023-08-07T15:04:01;19.17;80.48
64499;SHT31;51087;55.718;21.122;2023-08-07T15:06:27;19.14;81.21
64499;SHT31;51087;55.718;21.122;2023-08-07T15:08:52;19.39;80.61
64499;SHT31;51087;55.718;21.122;2023-08-07T15:11:18;19.99;79.35
64499;SHT31;51087;55.718;21.122;2023-08-07T15:13:43;20.21;78.57
64499;SHT31;51087;55.718;21.122;2023-08-07T15:16:09;20.38;78.69
64499;SHT31;51087;55.718;21.122;2023-08-07T15:18:35;19.82;79.51